Terminal Aerodrome Forecast
Issued by NWS St Louis, MO

Home | Current Version | Previous Version | Graphics & Text | Print | Product List | Glossary On
Versions: 1 2 3 4 5 6 7 8 9 10 11 12 13 14 15 16 17 18 19 20 21 22 23 24 25 26 27 28 29 30 31 32 33 34
000
FTUS43 KLSX 301500 AAB
TAFSTL
TAF AMD
KSTL 301500Z 3015/0118 03004KT P6SM SKC
     FM301800 05006KT P6SM SCT005
      TEMPO 3018/3020 5SM BR BKN005
     FM302000 05005KT P6SM SCT025
     FM010000 10007KT P6SM SCT250
     FM011500 16006KT P6SM SCT250=

USA.gov is the U.S. government's official web portal to all federal, state and local government web resources and services.